KBYH/BYH METAR and TAF weather

Enter ICAO airport designator
Station Type Date Time Source
KBYH METAR 2021/05/11 20:55 UTC NOAA

KBYH 112055Z 08010G20KT 10SM FEW080 BKN150 OVC250 21/09 A3010 RMK LAST


Station Type Date Time Source
KBYH Decoded METAR 2021/05/11 20:55 UTC NOAA

Eaker Air Force Base, AR, United States (KBYH) 35-58N 089-57W
May 11, 2021 - 04:55 PM EDT / 2021.05.11 2055 UTC
Wind: from the E (080 degrees) at 12 MPH (10 KT) gusting to 23 MPH (20 KT):0
Visibility: 10 mile(s):0
Sky conditions: overcast
Temperature: 69 F (21 C)
Dew Point: 48 F (9 C)
Relative Humidity: 46%
Pressure (altimeter): 30.1 in. Hg (1019 hPa)
ob: KBYH 112055Z 08010G20KT 10SM FEW080 BKN150 OVC250 21/09 A3010 RMK LAST
cycle: 21

Station Type Date Time Source
KBYH TAF UTC NOAA

Error!

Example: see airport list